createdAt,value
2014-11-20T14:58:13.821Z,351
2014-11-20T14:58:31.978Z,215
2014-11-20T14:58:50.152Z,219
2014-11-20T15:12:24.776Z,456
2014-11-20T15:12:42.651Z,461
2014-11-20T15:13:01.059Z,455
2014-11-20T15:13:19.591Z,456
2014-11-20T15:13:36.669Z,559
2014-11-20T15:13:54.483Z,469
2014-11-20T15:14:12.421Z,416
2014-11-20T15:14:30.077Z,460
2014-11-20T15:14:47.796Z,462
2014-11-20T15:15:05.455Z,485
2014-11-20T15:15:24.221Z,474
2014-11-20T15:15:41.268Z,462
2014-11-20T15:15:59.082Z,599
2014-11-20T15:16:16.707Z,605
2014-11-20T15:16:34.504Z,602
2014-11-20T19:58:18.832Z,0
2014-11-20T19:58:35.925Z,4
2014-11-20T19:58:54.474Z,3
2014-11-20T19:59:12.771Z,6
2014-11-20T19:59:31.443Z,8
2014-11-20T19:59:51.304Z,10
2014-11-20T20:00:08.914Z,11
2014-11-20T20:00:27.445Z,12
2014-11-20T20:00:45.792Z,12
2014-11-20T20:01:03.573Z,13
2014-11-20T20:01:22.026Z,13
2014-11-20T20:01:40.557Z,14
2014-11-20T20:01:59.092Z,14
2014-11-20T20:02:17.904Z,14
2014-11-20T20:02:36.295Z,14
2014-11-20T20:02:58.250Z,14
2014-11-20T20:03:15.469Z,14
2014-11-20T20:03:33.969Z,14
2014-11-20T20:03:53.252Z,14
2014-11-20T20:04:11.658Z,14
2014-11-20T20:04:30.080Z,15
2014-11-20T20:04:48.036Z,15
2014-11-20T20:05:08.083Z,0
2014-11-20T20:13:27.226Z,0
2014-11-20T20:15:31.325Z,0
2014-11-20T20:17:09.860Z,0
2014-11-20T20:18:47.584Z,0
2014-11-20T20:19:31.834Z,0
2014-11-20T20:20:35.257Z,0
2014-11-20T20:21:05.166Z,0
2014-11-20T20:21:28.010Z,0
2014-11-20T20:24:12.579Z,0
2014-11-20T20:24:32.001Z,0
2014-11-20T20:24:51.691Z,0
2014-11-20T20:25:09.191Z,0
2014-11-20T20:25:27.987Z,0
2014-11-20T20:25:47.208Z,0
2014-11-20T20:26:06.052Z,0
2014-11-20T20:26:24.458Z,0
2014-11-20T20:26:50.164Z,0
2014-11-20T20:30:46.673Z,0
2014-11-20T20:31:41.658Z,0
2014-11-20T20:32:14.285Z,0
2014-11-20T20:33:05.380Z,0
2014-11-20T20:34:04.868Z,0
2014-11-20T20:35:36.199Z,0
2014-11-20T20:36:14.638Z,0
2014-11-20T20:36:42.513Z,0
2014-11-20T20:37:05.875Z,0
2014-11-20T20:37:28.406Z,0
2014-11-20T20:37:48.330Z,0
2014-11-20T20:38:15.377Z,0
2014-11-20T20:38:53.989Z,0
2014-11-20T20:39:12.036Z,0
2014-11-20T20:39:32.130Z,0
2014-11-20T20:39:54.819Z,0
2014-11-20T20:40:26.085Z,0
2014-11-20T20:40:47.353Z,0
2014-11-20T20:41:07.399Z,0
2014-11-20T20:41:35.696Z,0
2014-11-20T20:41:53.261Z,0
2014-11-20T20:42:13.120Z,0
2014-11-20T20:42:38.198Z,0
2014-11-20T20:43:00.779Z,0
2014-11-20T20:43:22.701Z,0
2014-11-20T20:44:28.703Z,0
2014-11-20T20:44:51.300Z,0
2014-11-20T20:46:18.099Z,0
